sensor_id;sensor_type;location;lat;lon;timestamp;temperature;humidity
38456;DHT22;24237;50.106;20.014;2022-08-01T00:00:34;19.30;99.90
38456;DHT22;24237;50.106;20.014;2022-08-01T00:03:00;19.10;99.90
38456;DHT22;24237;50.106;20.014;2022-08-01T00:05:26;19.30;99.90
38456;DHT22;24237;50.106;20.014;2022-08-01T00:07:52;19.40;99.90
38456;DHT22;24237;50.106;20.014;2022-08-01T00:10:18;19.20;99.90
38456;DHT22;24237;50.106;20.014;2022-08-01T00:12:44;19.20;99.90
38456;DHT22;24237;50.106;20.014;2022-08-01T00:15:12;19.10;99.90
38456;DHT22;24237;50.106;20.014;2022-08-01T00:17:41;19.00;99.90
38456;DHT22;24237;50.106;20.014;2022-08-01T00:20:12;19.10;99.90
38456;DHT22;24237;50.106;20.014;2022-08-01T00:22:39;19.20;99.90
38456;DHT22;24237;50.106;20.014;2022-08-01T00:25:05;19.30;99.90
38456;DHT22;24237;50.106;20.014;2022-08-01T00:27:31;19.20;99.90
38456;DHT22;24237;50.106;20.014;2022-08-01T00:29:57;19.00;99.90
38456;DHT22;24237;50.106;20.014;2022-08-01T00:32:23;19.00;99.90
38456;DHT22;24237;50.106;20.014;2022-08-01T00:34:49;19.30;99.90
38456;DHT22;24237;50.106;20.014;2022-08-01T00:37:14;19.10;99.90
38456;DHT22;24237;50.106;20.014;2022-08-01T00:39:40;19.00;99.90
38456;DHT22;24237;50.106;20.014;2022-08-01T00:42:07;19.10;99.90
38456;DHT22;24237;50.106;20.014;2022-08-01T00:44:33;19.10;99.90
38456;DHT22;24237;50.106;20.014;2022-08-01T00:46:59;19.00;99.90
38456;DHT22;24237;50.106;20.014;2022-08-01T00:49:24;18.90;99.90
38456;DHT22;24237;50.106;20.014;2022-08-01T00:51:50;18.90;99.90
38456;DHT22;24237;50.106;20.014;2022-08-01T00:54:16;19.00;99.90
38456;DHT22;24237;50.106;20.014;2022-08-01T00:56:42;19.10;99.90
38456;DHT22;24237;50.106;20.014;2022-08-01T00:59:08;18.90;99.90
38456;DHT22;24237;50.106;20.014;2022-08-01T01:01:34;19.10;99.90
38456;DHT22;24237;50.106;20.014;2022-08-01T01:04:00;19.10;99.90
38456;DHT22;24237;50.106;20.014;2022-08-01T01:06:31;18.90;99.90
38456;DHT22;24237;50.106;20.014;2022-08-01T01:17:16;19.10;99.90
38456;DHT22;24237;50.106;20.014;2022-08-01T01:19:47;19.00;99.90
38456;DHT22;24237;50.106;20.014;2022-08-01T01:25:22;18.90;99.90
38456;DHT22;24237;50.106;20.014;2022-08-01T01:30:24;19.00;99.90
38456;DHT22;24237;50.106;20.014;2022-08-01T01:32:52;18.80;99.90
38456;DHT22;24237;50.106;20.014;2022-08-01T01:35:24;18.90;99.90
38456;DHT22;24237;50.106;20.014;2022-08-01T01:37:56;19.00;99.90
38456;DHT22;24237;50.106;20.014;2022-08-01T01:40:24;18.90;99.90
38456;DHT22;24237;50.106;20.014;2022-08-01T01:42:50;19.00;99.90
38456;DHT22;24237;50.106;20.014;2022-08-01T01:45:18;18.80;99.90
38456;DHT22;24237;50.106;20.014;2022-08-01T01:47:44;18.70;99.90
38456;DHT22;24237;50.106;20.014;2022-08-01T01:50:11;18.60;99.90
38456;DHT22;24237;50.106;20.014;2022-08-01T01:52:39;18.60;99.90
38456;DHT22;24237;50.106;20.014;2022-08-01T01:55:07;18.50;99.90
38456;DHT22;24237;50.106;20.014;2022-08-01T01:57:37;18.70;99.90
38456;DHT22;24237;50.106;20.014;2022-08-01T02:00:04;18.60;99.90
38456;DHT22;24237;50.106;20.014;2022-08-01T02:02:33;18.50;99.90
38456;DHT22;24237;50.106;20.014;2022-08-01T02:04:59;18.50;99.90
38456;DHT22;24237;50.106;20.014;2022-08-01T02:07:26;18.60;99.90
38456;DHT22;24237;50.106;20.014;2022-08-01T02:09:54;18.70;99.90
38456;DHT22;24237;50.106;20.014;2022-08-01T02:12:23;18.40;99.90
38456;DHT22;24237;50.106;20.014;2022-08-01T02:14:50;18.60;99.90
38456;DHT22;24237;50.106;20.014;2022-08-01T02:17:20;18.50;99.90
38456;DHT22;24237;50.106;20.014;2022-08-01T02:19:47;18.40;99.90
38456;DHT22;24237;50.106;20.014;2022-08-01T02:22:43;18.30;99.90
38456;DHT22;24237;50.106;20.014;2022-08-01T02:25:34;18.30;99.90
38456;DHT22;24237;50.106;20.014;2022-08-01T02:28:06;18.40;99.90
38456;DHT22;24237;50.106;20.014;2022-08-01T02:30:36;18.50;99.90
38456;DHT22;24237;50.106;20.014;2022-08-01T02:33:05;18.50;99.90
38456;DHT22;24237;50.106;20.014;2022-08-01T02:35:35;18.40;99.90
38456;DHT22;24237;50.106;20.014;2022-08-01T02:38:03;18.40;99.90
38456;DHT22;24237;50.106;20.014;2022-08-01T02:40:33;18.40;99.90
38456;DHT22;24237;50.106;20.014;2022-08-01T02:42:59;18.30;99.90
38456;DHT22;24237;50.106;20.014;2022-08-01T02:45:26;18.60;99.90
38456;DHT22;24237;50.106;20.014;2022-08-01T02:47:57;18.60;99.90
38456;DHT22;24237;50.106;20.014;2022-08-01T02:50:26;18.70;99.90
38456;DHT22;24237;50.106;20.014;2022-08-01T02:52:54;18.40;99.90
38456;DHT22;24237;50.106;20.014;2022-08-01T02:55:20;18.60;99.90
38456;DHT22;24237;50.106;20.014;2022-08-01T02:57:47;18.60;99.90
38456;DHT22;24237;50.106;20.014;2022-08-01T03:00:15;18.40;99.90
38456;DHT22;24237;50.106;20.014;2022-08-01T03:02:43;18.50;99.90
38456;DHT22;24237;50.106;20.014;2022-08-01T03:05:13;18.50;99.90
38456;DHT22;24237;50.106;20.014;2022-08-01T03:07:39;18.50;99.90
38456;DHT22;24237;50.106;20.014;2022-08-01T03:10:06;18.40;99.90
38456;DHT22;24237;50.106;20.014;2022-08-01T03:12:34;18.50;99.90
38456;DHT22;24237;50.106;20.014;2022-08-01T03:15:03;18.50;99.90
38456;DHT22;24237;50.106;20.014;2022-08-01T03:17:30;18.40;99.90
38456;DHT22;24237;50.106;20.014;2022-08-01T03:19:58;18.40;99.90
38456;DHT22;24237;50.106;20.014;2022-08-01T03:22:26;18.40;99.90
38456;DHT22;24237;50.106;20.014;2022-08-01T03:24:54;18.40;99.90
38456;DHT22;24237;50.106;20.014;2022-08-01T03:27:22;18.40;99.90
38456;DHT22;24237;50.106;20.014;2022-08-01T03:29:50;18.30;99.90
38456;DHT22;24237;50.106;20.014;2022-08-01T03:32:21;18.40;99.90
38456;DHT22;24237;50.106;20.014;2022-08-01T03:34:47;18.30;99.90
38456;DHT22;24237;50.106;20.014;2022-08-01T03:39:50;18.30;99.90
38456;DHT22;24237;50.106;20.014;2022-08-01T03:42:20;18.20;99.90
38456;DHT22;24237;50.106;20.014;2022-08-01T03:44:54;18.20;99.90
38456;DHT22;24237;50.106;20.014;2022-08-01T03:47:22;18.20;99.90
38456;DHT22;24237;50.106;20.014;2022-08-01T03:49:50;18.00;99.90
38456;DHT22;24237;50.106;20.014;2022-08-01T03:52:17;18.00;99.90
38456;DHT22;24237;50.106;20.014;2022-08-01T03:54:47;18.00;99.90
38456;DHT22;24237;50.106;20.014;2022-08-01T03:57:13;18.00;99.90
38456;DHT22;24237;50.106;20.014;2022-08-01T03:59:39;17.90;99.90
38456;DHT22;24237;50.106;20.014;2022-08-01T04:02:09;18.00;99.90
38456;DHT22;24237;50.106;20.014;2022-08-01T04:04:35;18.00;99.90
38456;DHT22;24237;50.106;20.014;2022-08-01T04:07:01;18.10;99.90
38456;DHT22;24237;50.106;20.014;2022-08-01T04:09:33;18.00;99.90
38456;DHT22;24237;50.106;20.014;2022-08-01T04:11:59;18.00;99.90
38456;DHT22;24237;50.106;20.014;2022-08-01T04:14:26;18.10;99.90
38456;DHT22;24237;50.106;20.014;2022-08-01T04:16:53;18.00;99.90
38456;DHT22;24237;50.106;20.014;2022-08-01T04:19:18;17.90;99.90
38456;DHT22;24237;50.106;20.014;2022-08-01T04:21:47;18.00;99.90
38456;DHT22;24237;50.106;20.014;2022-08-01T04:24:16;17.90;99.90
38456;DHT22;24237;50.106;20.014;2022-08-01T04:26:45;18.00;99.90
38456;DHT22;24237;50.106;20.014;2022-08-01T04:29:11;18.00;99.90
38456;DHT22;24237;50.106;20.014;2022-08-01T04:31:42;18.20;99.90
38456;DHT22;24237;50.106;20.014;2022-08-01T04:34:09;18.40;99.90
38456;DHT22;24237;50.106;20.014;2022-08-01T04:36:36;18.50;99.90
38456;DHT22;24237;50.106;20.014;2022-08-01T04:39:04;18.70;99.90
38456;DHT22;24237;50.106;20.014;2022-08-01T04:41:31;18.70;99.90
38456;DHT22;24237;50.106;20.014;2022-08-01T04:43:58;18.70;99.90
38456;DHT22;24237;50.106;20.014;2022-08-01T04:46:24;18.50;99.90
38456;DHT22;24237;50.106;20.014;2022-08-01T04:48:51;18.30;99.90
38456;DHT22;24237;50.106;20.014;2022-08-01T04:51:17;18.10;99.90
38456;DHT22;24237;50.106;20.014;2022-08-01T04:53:46;18.00;99.90
38456;DHT22;24237;50.106;20.014;2022-08-01T04:56:12;18.10;99.90
38456;DHT22;24237;50.106;20.014;2022-08-01T04:58:41;18.00;99.90
38456;DHT22;24237;50.106;20.014;2022-08-01T05:01:07;18.10;99.90
38456;DHT22;24237;50.106;20.014;2022-08-01T05:03:33;18.40;99.90
38456;DHT22;24237;50.106;20.014;2022-08-01T05:05:59;18.40;99.90
38456;DHT22;24237;50.106;20.014;2022-08-01T05:08:24;18.50;99.90
38456;DHT22;24237;50.106;20.014;2022-08-01T05:10:50;18.40;99.90
38456;DHT22;24237;50.106;20.014;2022-08-01T05:13:16;18.40;99.90
38456;DHT22;24237;50.106;20.014;2022-08-01T05:15:41;18.30;99.90
38456;DHT22;24237;50.106;20.014;2022-08-01T05:18:07;18.30;99.90
38456;DHT22;24237;50.106;20.014;2022-08-01T05:20:33;18.50;99.90
38456;DHT22;24237;50.106;20.014;2022-08-01T05:22:58;18.60;99.90
38456;DHT22;24237;50.106;20.014;2022-08-01T05:25:24;18.50;99.90
38456;DHT22;24237;50.106;20.014;2022-08-01T05:27:50;18.40;99.90
38456;DHT22;24237;50.106;20.014;2022-08-01T05:30:15;18.50;99.90
38456;DHT22;24237;50.106;20.014;2022-08-01T05:32:41;18.60;99.90
38456;DHT22;24237;50.106;20.014;2022-08-01T05:35:08;18.60;99.90
38456;DHT22;24237;50.106;20.014;2022-08-01T05:37:34;18.60;99.90
38456;DHT22;24237;50.106;20.014;2022-08-01T05:39:59;18.80;99.90
38456;DHT22;24237;50.106;20.014;2022-08-01T05:42:25;18.80;99.90
38456;DHT22;24237;50.106;20.014;2022-08-01T05:44:54;18.90;99.90
38456;DHT22;24237;50.106;20.014;2022-08-01T05:47:20;19.00;99.90
38456;DHT22;24237;50.106;20.014;2022-08-01T05:49:48;19.20;99.90
38456;DHT22;24237;50.106;20.014;2022-08-01T05:52:17;19.30;99.90
38456;DHT22;24237;50.106;20.014;2022-08-01T05:54:42;19.50;99.90
38456;DHT22;24237;50.106;20.014;2022-08-01T05:57:08;19.80;99.90
38456;DHT22;24237;50.106;20.014;2022-08-01T05:59:34;20.00;99.90
38456;DHT22;24237;50.106;20.014;2022-08-01T06:02:00;20.30;99.90
38456;DHT22;24237;50.106;20.014;2022-08-01T06:04:26;20.20;99.90
38456;DHT22;24237;50.106;20.014;2022-08-01T06:06:51;20.00;99.90
38456;DHT22;24237;50.106;20.014;2022-08-01T06:09:17;20.20;99.90
38456;DHT22;24237;50.106;20.014;2022-08-01T06:11:43;20.30;99.90
38456;DHT22;24237;50.106;20.014;2022-08-01T06:14:09;20.40;99.90
38456;DHT22;24237;50.106;20.014;2022-08-01T06:16:35;20.30;99.90
38456;DHT22;24237;50.106;20.014;2022-08-01T06:19:00;20.30;99.90
38456;DHT22;24237;50.106;20.014;2022-08-01T06:21:26;20.30;99.90
38456;DHT22;24237;50.106;20.014;2022-08-01T06:23:57;20.60;99.90
38456;DHT22;24237;50.106;20.014;2022-08-01T06:26:23;20.80;99.90
38456;DHT22;24237;50.106;20.014;2022-08-01T06:28:49;20.70;99.90
38456;DHT22;24237;50.106;20.014;2022-08-01T06:31:21;20.80;99.90
38456;DHT22;24237;50.106;20.014;2022-08-01T06:34:00;20.90;99.90
38456;DHT22;24237;50.106;20.014;2022-08-01T06:36:25;20.70;99.90
38456;DHT22;24237;50.106;20.014;2022-08-01T06:38:51;21.00;99.90
38456;DHT22;24237;50.106;20.014;2022-08-01T06:41:26;21.40;99.90
38456;DHT22;24237;50.106;20.014;2022-08-01T06:43:52;21.40;99.90
38456;DHT22;24237;50.106;20.014;2022-08-01T06:46:21;21.80;99.90
38456;DHT22;24237;50.106;20.014;2022-08-01T06:48:59;21.60;99.90
38456;DHT22;24237;50.106;20.014;2022-08-01T06:51:25;21.80;99.90
38456;DHT22;24237;50.106;20.014;2022-08-01T06:53:50;21.80;99.90
38456;DHT22;24237;50.106;20.014;2022-08-01T06:56:16;21.70;99.90
38456;DHT22;24237;50.106;20.014;2022-08-01T06:59:00;21.60;99.90
38456;DHT22;24237;50.106;20.014;2022-08-01T07:01:27;22.00;99.90
38456;DHT22;24237;50.106;20.014;2022-08-01T07:03:56;21.80;99.90
38456;DHT22;24237;50.106;20.014;2022-08-01T07:06:23;21.90;99.90
38456;DHT22;24237;50.106;20.014;2022-08-01T07:08:49;22.00;99.90
38456;DHT22;24237;50.106;20.014;2022-08-01T07:11:15;22.10;99.90
38456;DHT22;24237;50.106;20.014;2022-08-01T07:13:40;22.10;99.90
38456;DHT22;24237;50.106;20.014;2022-08-01T07:16:09;22.30;99.90
38456;DHT22;24237;50.106;20.014;2022-08-01T07:18:35;22.30;99.90
38456;DHT22;24237;50.106;20.014;2022-08-01T07:21:00;22.30;99.90
38456;DHT22;24237;50.106;20.014;2022-08-01T07:23:26;22.30;99.90
38456;DHT22;24237;50.106;20.014;2022-08-01T07:25:51;22.80;99.90
38456;DHT22;24237;50.106;20.014;2022-08-01T07:28:21;22.90;99.90
38456;DHT22;24237;50.106;20.014;2022-08-01T07:30:55;22.90;99.90
38456;DHT22;24237;50.106;20.014;2022-08-01T07:33:21;23.10;99.90
38456;DHT22;24237;50.106;20.014;2022-08-01T07:35:47;23.20;99.90
38456;DHT22;24237;50.106;20.014;2022-08-01T07:38:13;23.30;99.90
38456;DHT22;24237;50.106;20.014;2022-08-01T07:40:45;23.20;99.90
38456;DHT22;24237;50.106;20.014;2022-08-01T07:43:11;23.30;99.90
38456;DHT22;24237;50.106;20.014;2022-08-01T07:45:37;23.30;99.90
38456;DHT22;24237;50.106;20.014;2022-08-01T07:48:04;23.50;99.90
38456;DHT22;24237;50.106;20.014;2022-08-01T07:50:32;23.40;99.90
38456;DHT22;24237;50.106;20.014;2022-08-01T07:52:58;23.80;99.90
38456;DHT22;24237;50.106;20.014;2022-08-01T07:55:42;23.90;99.90
38456;DHT22;24237;50.106;20.014;2022-08-01T07:58:07;24.00;99.90
38456;DHT22;24237;50.106;20.014;2022-08-01T08:00:36;23.90;99.90
38456;DHT22;24237;50.106;20.014;2022-08-01T08:03:02;23.90;99.90
38456;DHT22;24237;50.106;20.014;2022-08-01T08:05:31;24.10;99.90
38456;DHT22;24237;50.106;20.014;2022-08-01T08:07:58;23.80;99.90
38456;DHT22;24237;50.106;20.014;2022-08-01T08:10:23;23.70;99.90
38456;DHT22;24237;50.106;20.014;2022-08-01T08:12:52;23.80;99.90
38456;DHT22;24237;50.106;20.014;2022-08-01T08:15:18;24.20;99.90
38456;DHT22;24237;50.106;20.014;2022-08-01T08:17:43;24.60;99.90
38456;DHT22;24237;50.106;20.014;2022-08-01T08:20:09;24.80;99.90
38456;DHT22;24237;50.106;20.014;2022-08-01T08:22:54;24.80;99.90
38456;DHT22;24237;50.106;20.014;2022-08-01T08:25:44;24.90;99.90
38456;DHT22;24237;50.106;20.014;2022-08-01T08:28:09;25.10;99.90
38456;DHT22;24237;50.106;20.014;2022-08-01T08:30:38;25.20;99.90
38456;DHT22;24237;50.106;20.014;2022-08-01T08:33:04;25.10;99.90
38456;DHT22;24237;50.106;20.014;2022-08-01T08:35:29;25.00;99.90
38456;DHT22;24237;50.106;20.014;2022-08-01T08:37:55;25.20;99.90
38456;DHT22;24237;50.106;20.014;2022-08-01T08:40:22;25.00;99.90
38456;DHT22;24237;50.106;20.014;2022-08-01T08:42:54;25.10;99.90
38456;DHT22;24237;50.106;20.014;2022-08-01T08:45:23;25.50;99.90
38456;DHT22;24237;50.106;20.014;2022-08-01T08:47:49;25.40;99.90
38456;DHT22;24237;50.106;20.014;2022-08-01T08:50:16;25.40;99.90
38456;DHT22;24237;50.106;20.014;2022-08-01T08:52:43;25.40;99.90
38456;DHT22;24237;50.106;20.014;2022-08-01T08:55:11;25.50;99.90
38456;DHT22;24237;50.106;20.014;2022-08-01T08:57:40;26.00;99.90
38456;DHT22;24237;50.106;20.014;2022-08-01T09:00:08;25.90;99.90
38456;DHT22;24237;50.106;20.014;2022-08-01T09:02:35;25.80;99.90
38456;DHT22;24237;50.106;20.014;2022-08-01T09:05:02;25.70;99.90
38456;DHT22;24237;50.106;20.014;2022-08-01T09:07:27;25.90;99.90
38456;DHT22;24237;50.106;20.014;2022-08-01T09:09:53;26.00;99.90
38456;DHT22;24237;50.106;20.014;2022-08-01T09:12:19;26.00;99.90
38456;DHT22;24237;50.106;20.014;2022-08-01T09:14:46;26.00;99.90
38456;DHT22;24237;50.106;20.014;2022-08-01T09:17:12;25.80;99.60
38456;DHT22;24237;50.106;20.014;2022-08-01T09:22:14;26.10;99.70
38456;DHT22;24237;50.106;20.014;2022-08-01T09:25:06;25.80;99.90
38456;DHT22;24237;50.106;20.014;2022-08-01T09:27:33;25.90;99.70
38456;DHT22;24237;50.106;20.014;2022-08-01T09:30:12;25.90;99.90
38456;DHT22;24237;50.106;20.014;2022-08-01T09:32:58;25.90;99.90
38456;DHT22;24237;50.106;20.014;2022-08-01T09:35:33;26.20;99.80
38456;DHT22;24237;50.106;20.014;2022-08-01T09:38:18;26.30;99.80
38456;DHT22;24237;50.106;20.014;2022-08-01T09:40:49;26.60;99.50
38456;DHT22;24237;50.106;20.014;2022-08-01T09:43:18;26.90;99.40
38456;DHT22;24237;50.106;20.014;2022-08-01T09:49:44;27.10;99.90
38456;DHT22;24237;50.106;20.014;2022-08-01T09:52:14;27.20;99.90
38456;DHT22;24237;50.106;20.014;2022-08-01T09:54:41;27.60;99.50
38456;DHT22;24237;50.106;20.014;2022-08-01T09:59:38;27.40;98.60
38456;DHT22;24237;50.106;20.014;2022-08-01T10:02:10;27.70;98.40
38456;DHT22;24237;50.106;20.014;2022-08-01T10:04:49;27.90;98.20
38456;DHT22;24237;50.106;20.014;2022-08-01T10:07:15;27.90;97.40
38456;DHT22;24237;50.106;20.014;2022-08-01T10:09:44;28.00;98.10
38456;DHT22;24237;50.106;20.014;2022-08-01T10:12:12;27.90;97.60
38456;DHT22;24237;50.106;20.014;2022-08-01T10:14:39;28.00;97.50
38456;DHT22;24237;50.106;20.014;2022-08-01T10:17:12;28.30;97.70
38456;DHT22;24237;50.106;20.014;2022-08-01T10:19:49;28.40;98.00
38456;DHT22;24237;50.106;20.014;2022-08-01T10:22:19;28.70;97.00
38456;DHT22;24237;50.106;20.014;2022-08-01T10:24:47;29.00;96.10
38456;DHT22;24237;50.106;20.014;2022-08-01T10:27:15;28.80;95.60
38456;DHT22;24237;50.106;20.014;2022-08-01T10:29:54;29.00;94.90
38456;DHT22;24237;50.106;20.014;2022-08-01T10:32:21;28.50;95.80
38456;DHT22;24237;50.106;20.014;2022-08-01T10:34:47;28.30;95.90
38456;DHT22;24237;50.106;20.014;2022-08-01T10:37:14;28.30;95.50
38456;DHT22;24237;50.106;20.014;2022-08-01T10:39:40;28.30;95.10
38456;DHT22;24237;50.106;20.014;2022-08-01T10:42:09;28.70;94.90
38456;DHT22;24237;50.106;20.014;2022-08-01T10:44:36;28.80;94.90
38456;DHT22;24237;50.106;20.014;2022-08-01T10:47:10;28.90;94.70
38456;DHT22;24237;50.106;20.014;2022-08-01T10:49:45;28.90;94.20
38456;DHT22;24237;50.106;20.014;2022-08-01T10:52:16;28.60;94.20
38456;DHT22;24237;50.106;20.014;2022-08-01T10:54:42;28.30;93.60
38456;DHT22;24237;50.106;20.014;2022-08-01T10:57:08;28.50;93.60
38456;DHT22;24237;50.106;20.014;2022-08-01T10:59:33;29.10;93.60
38456;DHT22;24237;50.106;20.014;2022-08-01T11:02:05;29.50;93.10
38456;DHT22;24237;50.106;20.014;2022-08-01T11:09:41;29.40;92.90
38456;DHT22;24237;50.106;20.014;2022-08-01T11:12:12;29.50;92.70
38456;DHT22;24237;50.106;20.014;2022-08-01T11:17:40;30.30;92.20
38456;DHT22;24237;50.106;20.014;2022-08-01T11:20:17;30.20;92.10
38456;DHT22;24237;50.106;20.014;2022-08-01T11:33:07;29.90;91.30
38456;DHT22;24237;50.106;20.014;2022-08-01T11:35:33;30.00;91.20
38456;DHT22;24237;50.106;20.014;2022-08-01T11:40:44;30.00;91.40
38456;DHT22;24237;50.106;20.014;2022-08-01T11:45:53;30.20;90.50
38456;DHT22;24237;50.106;20.014;2022-08-01T11:48:25;30.10;90.20
38456;DHT22;24237;50.106;20.014;2022-08-01T11:50:52;30.20;90.50
38456;DHT22;24237;50.106;20.014;2022-08-01T11:53:19;30.50;90.20
38456;DHT22;24237;50.106;20.014;2022-08-01T11:55:52;30.00;90.30
38456;DHT22;24237;50.106;20.014;2022-08-01T11:58:25;30.00;90.50
38456;DHT22;24237;50.106;20.014;2022-08-01T12:00:52;30.60;90.30
38456;DHT22;24237;50.106;20.014;2022-08-01T12:03:27;30.50;89.30
38456;DHT22;24237;50.106;20.014;2022-08-01T12:05:54;30.80;90.00
38456;DHT22;24237;50.106;20.014;2022-08-01T12:08:31;30.50;89.60
38456;DHT22;24237;50.106;20.014;2022-08-01T12:10:59;31.00;88.80
38456;DHT22;24237;50.106;20.014;2022-08-01T12:13:25;30.80;90.20
38456;DHT22;24237;50.106;20.014;2022-08-01T12:15:51;30.80;88.70
38456;DHT22;24237;50.106;20.014;2022-08-01T12:18:17;30.50;89.30
38456;DHT22;24237;50.106;20.014;2022-08-01T12:20:44;30.40;89.30
38456;DHT22;24237;50.106;20.014;2022-08-01T12:23:15;30.50;89.60
38456;DHT22;24237;50.106;20.014;2022-08-01T12:25:41;30.60;88.30
38456;DHT22;24237;50.106;20.014;2022-08-01T12:28:10;30.40;88.00
38456;DHT22;24237;50.106;20.014;2022-08-01T12:30:36;30.40;88.40
38456;DHT22;24237;50.106;20.014;2022-08-01T12:33:09;30.90;88.60
38456;DHT22;24237;50.106;20.014;2022-08-01T12:35:36;31.00;87.30
38456;DHT22;24237;50.106;20.014;2022-08-01T12:38:05;30.80;87.20
38456;DHT22;24237;50.106;20.014;2022-08-01T12:40:36;31.20;87.30
38456;DHT22;24237;50.106;20.014;2022-08-01T12:43:07;30.70;86.60
38456;DHT22;24237;50.106;20.014;2022-08-01T12:45:33;30.30;89.20
38456;DHT22;24237;50.106;20.014;2022-08-01T12:48:00;31.00;89.70
38456;DHT22;24237;50.106;20.014;2022-08-01T12:50:28;31.30;88.00
38456;DHT22;24237;50.106;20.014;2022-08-01T12:52:56;31.10;89.80
38456;DHT22;24237;50.106;20.014;2022-08-01T12:55:24;31.70;90.30
38456;DHT22;24237;50.106;20.014;2022-08-01T12:58:07;32.00;89.10
38456;DHT22;24237;50.106;20.014;2022-08-01T13:00:34;31.80;87.80
38456;DHT22;24237;50.106;20.014;2022-08-01T13:03:05;32.50;86.60
38456;DHT22;24237;50.106;20.014;2022-08-01T13:05:48;32.50;85.30
38456;DHT22;24237;50.106;20.014;2022-08-01T13:10:43;32.50;83.10
38456;DHT22;24237;50.106;20.014;2022-08-01T13:13:10;31.60;85.00
38456;DHT22;24237;50.106;20.014;2022-08-01T13:15:37;31.20;85.00
38456;DHT22;24237;50.106;20.014;2022-08-01T13:18:26;31.50;86.00
38456;DHT22;24237;50.106;20.014;2022-08-01T13:21:21;31.70;85.00
38456;DHT22;24237;50.106;20.014;2022-08-01T13:24:11;31.80;86.10
38456;DHT22;24237;50.106;20.014;2022-08-01T13:26:52;31.50;85.40
38456;DHT22;24237;50.106;20.014;2022-08-01T13:29:28;31.40;85.70
38456;DHT22;24237;50.106;20.014;2022-08-01T13:31:54;31.60;86.50
38456;DHT22;24237;50.106;20.014;2022-08-01T13:34:32;31.60;84.90
38456;DHT22;24237;50.106;20.014;2022-08-01T13:36:58;31.80;85.40
38456;DHT22;24237;50.106;20.014;2022-08-01T13:39:24;31.60;85.80
38456;DHT22;24237;50.106;20.014;2022-08-01T13:42:09;31.80;86.20
38456;DHT22;24237;50.106;20.014;2022-08-01T13:44:35;31.80;87.50
38456;DHT22;24237;50.106;20.014;2022-08-01T13:47:02;31.50;87.90
38456;DHT22;24237;50.106;20.014;2022-08-01T13:49:28;31.20;88.50
38456;DHT22;24237;50.106;20.014;2022-08-01T13:51:54;31.50;88.20
38456;DHT22;24237;50.106;20.014;2022-08-01T13:54:20;31.30;87.40
38456;DHT22;24237;50.106;20.014;2022-08-01T13:56:45;31.10;87.40
38456;DHT22;24237;50.106;20.014;2022-08-01T13:59:12;31.20;87.20
38456;DHT22;24237;50.106;20.014;2022-08-01T14:01:41;31.30;87.40
38456;DHT22;24237;50.106;20.014;2022-08-01T14:04:07;31.00;87.50
38456;DHT22;24237;50.106;20.014;2022-08-01T14:06:32;30.20;88.10
38456;DHT22;24237;50.106;20.014;2022-08-01T14:08:58;30.30;88.70
38456;DHT22;24237;50.106;20.014;2022-08-01T14:11:24;30.30;89.20
38456;DHT22;24237;50.106;20.014;2022-08-01T14:13:49;30.40;88.60
38456;DHT22;24237;50.106;20.014;2022-08-01T14:16:16;30.50;87.90
38456;DHT22;24237;50.106;20.014;2022-08-01T14:18:42;30.50;87.90
38456;DHT22;24237;50.106;20.014;2022-08-01T14:21:07;30.50;88.10
38456;DHT22;24237;50.106;20.014;2022-08-01T14:23:33;29.90;88.60
38456;DHT22;24237;50.106;20.014;2022-08-01T14:25:58;29.60;89.90
38456;DHT22;24237;50.106;20.014;2022-08-01T14:28:24;29.80;89.90
38456;DHT22;24237;50.106;20.014;2022-08-01T14:30:50;29.70;89.40
38456;DHT22;24237;50.106;20.014;2022-08-01T14:33:16;29.50;89.30
38456;DHT22;24237;50.106;20.014;2022-08-01T14:35:42;29.60;88.80
38456;DHT22;24237;50.106;20.014;2022-08-01T14:38:07;29.40;89.90
38456;DHT22;24237;50.106;20.014;2022-08-01T14:40:34;29.30;90.10
38456;DHT22;24237;50.106;20.014;2022-08-01T14:43:00;29.70;89.30
38456;DHT22;24237;50.106;20.014;2022-08-01T14:45:29;30.10;89.10
38456;DHT22;24237;50.106;20.014;2022-08-01T14:47:54;30.70;88.90
38456;DHT22;24237;50.106;20.014;2022-08-01T14:50:20;31.60;86.50
38456;DHT22;24237;50.106;20.014;2022-08-01T14:52:45;32.70;85.10
38456;DHT22;24237;50.106;20.014;2022-08-01T14:55:12;32.60;84.40
38456;DHT22;24237;50.106;20.014;2022-08-01T14:57:38;32.50;84.50
38456;DHT22;24237;50.106;20.014;2022-08-01T15:00:06;33.20;83.80
38456;DHT22;24237;50.106;20.014;2022-08-01T15:02:32;33.70;83.10
38456;DHT22;24237;50.106;20.014;2022-08-01T15:04:57;34.00;81.50
38456;DHT22;24237;50.106;20.014;2022-08-01T15:07:23;34.40;81.70
38456;DHT22;24237;50.106;20.014;2022-08-01T15:09:49;33.80;81.30
38456;DHT22;24237;50.106;20.014;2022-08-01T15:12:15;33.60;82.30
38456;DHT22;24237;50.106;20.014;2022-08-01T15:14:40;32.90;82.90
38456;DHT22;24237;50.106;20.014;2022-08-01T15:17:29;32.70;83.70
38456;DHT22;24237;50.106;20.014;2022-08-01T15:20:01;32.00;83.80
38456;DHT22;24237;50.106;20.014;2022-08-01T15:22:28;30.80;85.20
38456;DHT22;24237;50.106;20.014;2022-08-01T15:24:55;30.10;86.80
38456;DHT22;24237;50.106;20.014;2022-08-01T15:27:21;29.60;88.00
38456;DHT22;24237;50.106;20.014;2022-08-01T15:29:48;29.50;88.50
38456;DHT22;24237;50.106;20.014;2022-08-01T15:32:14;29.90;88.80
38456;DHT22;24237;50.106;20.014;2022-08-01T15:34:40;29.80;88.80
38456;DHT22;24237;50.106;20.014;2022-08-01T15:37:08;29.80;90.00
38456;DHT22;24237;50.106;20.014;2022-08-01T15:39:43;30.00;90.00
38456;DHT22;24237;50.106;20.014;2022-08-01T15:42:11;29.80;89.90
38456;DHT22;24237;50.106;20.014;2022-08-01T15:44:37;29.50;90.40
38456;DHT22;24237;50.106;20.014;2022-08-01T15:47:04;29.30;90.30
38456;DHT22;24237;50.106;20.014;2022-08-01T15:49:30;29.20;90.40
38456;DHT22;24237;50.106;20.014;2022-08-01T15:51:55;28.90;91.00
38456;DHT22;24237;50.106;20.014;2022-08-01T15:54:21;28.90;91.20
38456;DHT22;24237;50.106;20.014;2022-08-01T15:56:47;28.80;91.50
38456;DHT22;24237;50.106;20.014;2022-08-01T15:59:13;28.80;91.40
38456;DHT22;24237;50.106;20.014;2022-08-01T16:01:40;28.50;91.70
38456;DHT22;24237;50.106;20.014;2022-08-01T16:04:06;28.40;91.90
38456;DHT22;24237;50.106;20.014;2022-08-01T16:06:33;28.20;92.00
38456;DHT22;24237;50.106;20.014;2022-08-01T16:08:58;28.30;91.90
38456;DHT22;24237;50.106;20.014;2022-08-01T16:11:24;28.10;92.40
38456;DHT22;24237;50.106;20.014;2022-08-01T16:13:55;28.10;92.60